Time;durP1;ratioP1;P1;durP2;ratioP2;P2;SDS_P1;SDS_P2;PMS_P1;PMS_P2;Temp;Humidity;BMP_temperature;BMP_pressure;BME280_temperature;BME280_humidity;BME280_pressure;Samples;Min_cycle;Max_cycle;Signal;HPM_P1;HPM_P2
2023/08/01 00:01:22;;;;;;;15.02;9.15;;;;;;;15.46;100.00;99912.41;4993561;28;20491;-77
2023/08/01 00:03:47;;;;;;;13.07;9.25;;;;;;;15.43;100.00;99902.28;4993370;28;20027;-77
2023/08/01 00:06:13;;;;;;;12.75;9.48;;;;;;;15.42;100.00;99904.06;4993467;28;20108;-79
2023/08/01 00:08:38;;;;;;;13.65;9.73;;;;;;;15.39;100.00;99880.16;4993447;28;20030;-79
2023/08/01 00:11:03;;;;;;;15.18;10.15;;;;;;;15.45;100.00;99887.38;4993766;28;20106;-77
2023/08/01 00:13:29;;;;;;;15.63;10.35;;;;;;;15.40;100.00;99874.81;4993108;28;20109;-77
2023/08/01 00:15:54;;;;;;;13.80;9.77;;;;;;;15.35;100.00;99861.44;4993244;28;20432;-80
2023/08/01 00:18:19;;;;;;;14.68;9.43;;;;;;;15.39;100.00;99859.34;4993267;28;20026;-79
2023/08/01 00:20:45;;;;;;;14.43;9.50;;;;;;;15.47;100.00;99873.22;4993416;28;20480;-77
2023/08/01 00:23:10;;;;;;;14.18;9.90;;;;;;;15.47;100.00;99869.81;4993368;28;20053;-77
2023/08/01 00:25:35;;;;;;;13.52;9.40;;;;;;;15.47;100.00;99877.63;4993265;28;20113;-78
2023/08/01 00:28:01;;;;;;;12.60;9.48;;;;;;;15.47;100.00;99875.03;4993171;28;20109;-78
2023/08/01 00:30:26;;;;;;;12.13;8.32;;;;;;;15.37;100.00;99859.50;4993181;28;20379;-78
2023/08/01 00:32:51;;;;;;;13.75;9.13;;;;;;;15.25;100.00;99839.09;4994983;28;20049;-78
2023/08/01 00:35:17;;;;;;;10.85;7.82;;;;;;;15.15;100.00;99816.59;4997288;28;20031;-78
2023/08/01 00:37:42;;;;;;;13.00;8.05;;;;;;;15.47;100.00;99862.00;4997129;28;20032;-77
2023/08/01 00:40:08;;;;;;;10.45;7.55;;;;;;;15.39;100.00;99851.53;4997132;28;20491;-78
2023/08/01 00:42:36;;;;;;;10.02;7.30;;;;;;;15.42;100.00;99862.44;4997056;28;20057;-78
2023/08/01 00:45:02;;;;;;;12.65;7.30;;;;;;;15.41;100.00;99865.22;4997131;28;20038;-78
2023/08/01 00:47:27;;;;;;;10.35;7.20;;;;;;;14.93;100.00;99788.44;4996828;28;20030;-78
2023/08/01 00:49:52;;;;;;;11.70;6.93;;;;;;;15.30;100.00;99847.25;4996884;28;20030;-77
2023/08/01 00:52:18;;;;;;;11.60;7.22;;;;;;;15.37;100.00;99849.09;4996839;28;20065;-78
2023/08/01 00:54:43;;;;;;;11.35;6.50;;;;;;;15.41;100.00;99860.00;4996992;28;20053;-78
2023/08/01 00:57:09;;;;;;;11.95;7.07;;;;;;;15.39;100.00;99862.75;4996776;28;20491;-78
2023/08/01 00:59:35;;;;;;;8.93;6.32;;;;;;;14.98;100.00;99791.41;4996756;28;20038;-77
2023/08/01 01:02:01;;;;;;;12.88;6.55;;;;;;;15.39;100.00;99864.53;4996575;28;20461;-78
2023/08/01 01:04:26;;;;;;;12.85;6.50;;;;;;;15.37;100.00;99858.69;4996423;28;20452;-78
2023/08/01 01:07:03;;;;;;;12.48;6.63;;;;;;;15.37;100.00;99859.50;4996620;28;20081;-78
2023/08/01 01:09:32;;;;;;;12.48;6.55;;;;;;;15.02;100.00;99810.94;4996658;28;20033;-78
2023/08/01 01:11:59;;;;;;;17.10;6.50;;;;;;;15.32;100.00;99871.31;4979635;28;20473;-78
2023/08/01 01:14:26;;;;;;;11.32;5.65;;;;;;;15.21;100.00;99865.38;4996138;28;20536;-78
2023/08/01 01:16:51;;;;;;;10.18;5.85;;;;;;;15.17;100.00;99858.03;4996430;28;20029;-78
2023/08/01 01:19:17;;;;;;;10.65;5.55;;;;;;;15.05;100.00;99846.25;4996603;28;20026;-78
2023/08/01 01:21:43;;;;;;;11.07;5.68;;;;;;;15.01;100.00;99850.09;4996346;28;20022;-78
2023/08/01 01:24:11;;;;;;;11.68;5.90;;;;;;;14.89;100.00;99847.72;4996456;28;20034;-78
2023/08/01 01:26:39;;;;;;;10.60;5.90;;;;;;;14.77;100.00;99838.50;4996368;28;20041;-77
2023/08/01 01:29:05;;;;;;;10.55;6.28;;;;;;;14.86;100.00;99855.00;4978203;28;20035;-78
2023/08/01 01:31:32;;;;;;;9.23;5.40;;;;;;;14.77;100.00;99843.69;4996178;28;20049;-78
2023/08/01 01:33:59;;;;;;;13.10;6.00;;;;;;;14.57;100.00;99824.81;4995932;28;20066;-78
2023/08/01 01:36:24;;;;;;;11.85;6.15;;;;;;;14.64;100.00;99828.44;4995807;28;20033;-78
2023/08/01 01:38:49;;;;;;;9.43;6.10;;;;;;;14.29;100.00;99785.03;4996061;28;20030;-78
2023/08/01 01:41:15;;;;;;;10.38;6.53;;;;;;;14.74;100.00;99845.75;4996122;28;20388;-78
2023/08/01 01:43:40;;;;;;;11.93;7.00;;;;;;;14.68;100.00;99831.59;4995159;28;20077;-78
2023/08/01 01:46:06;;;;;;;13.38;6.97;;;;;;;14.82;100.00;99843.25;4995834;28;20379;-79
2023/08/01 01:48:31;;;;;;;11.40;6.65;;;;;;;14.86;100.00;99845.41;4995878;28;20042;-78
2023/08/01 01:50:56;;;;;;;15.13;7.18;;;;;;;14.89;100.00;99845.09;4995818;28;20101;-79
2023/08/01 01:53:22;;;;;;;13.10;7.28;;;;;;;14.91;100.00;99842.34;4995562;28;20050;-79
2023/08/01 01:55:47;;;;;;;15.02;7.70;;;;;;;14.92;100.00;99837.00;4995819;28;20062;-79
2023/08/01 01:58:12;;;;;;;11.52;7.43;;;;;;;14.92;100.00;99844.00;4995526;28;20057;-78
2023/08/01 02:00:38;;;;;;;11.82;6.63;;;;;;;14.72;100.00;99812.13;4995535;28;20022;-79
2023/08/01 02:03:03;;;;;;;12.05;8.02;;;;;;;14.83;100.00;99842.28;4995556;28;20105;-78
2023/08/01 02:05:29;;;;;;;13.25;8.02;;;;;;;14.41;100.00;99784.81;4995582;28;20527;-79
2023/08/01 02:07:55;;;;;;;13.30;7.50;;;;;;;14.61;100.00;99831.34;4995387;28;20495;-78
2023/08/01 02:10:20;;;;;;;12.75;7.82;;;;;;;13.92;100.00;99727.16;4995432;28;20052;-79
2023/08/01 02:12:45;;;;;;;11.98;8.05;;;;;;;14.58;100.00;99841.22;4995579;28;20023;-78
2023/08/01 02:15:10;;;;;;;13.15;8.57;;;;;;;14.57;100.00;99835.22;4977875;28;20038;-79
2023/08/01 02:17:36;;;;;;;17.08;8.32;;;;;;;14.58;100.00;99836.84;4995268;28;20037;-78
2023/08/01 02:20:01;;;;;;;13.73;8.25;;;;;;;14.51;100.00;99814.19;4995418;28;20110;-79
2023/08/01 02:22:27;;;;;;;16.65;8.80;;;;;;;14.63;100.00;99839.81;4995258;28;20483;-79
2023/08/01 02:24:52;;;;;;;14.10;8.43;;;;;;;14.52;100.00;99818.41;4994933;28;20511;-79
2023/08/01 02:27:18;;;;;;;15.25;9.50;;;;;;;14.70;100.00;99842.66;4995235;28;20026;-79
2023/08/01 02:29:44;;;;;;;13.18;8.60;;;;;;;14.63;100.00;99824.22;4995030;28;20105;-78
2023/08/01 02:32:09;;;;;;;15.57;8.70;;;;;;;14.60;100.00;99819.31;4994990;28;20029;-78
2023/08/01 02:34:34;;;;;;;14.57;8.38;;;;;;;14.73;100.00;99849.31;4995183;28;20081;-78
2023/08/01 02:37:00;;;;;;;16.55;8.88;;;;;;;14.58;100.00;99815.25;4995099;28;20030;-78
2023/08/01 02:39:25;;;;;;;15.02;8.38;;;;;;;14.72;100.00;99842.50;4994795;28;20026;-79
2023/08/01 02:41:50;;;;;;;18.40;9.25;;;;;;;14.62;100.00;99832.16;4994758;28;20023;-78
2023/08/01 02:44:16;;;;;;;14.02;8.63;;;;;;;14.71;100.00;99846.06;4994810;28;20061;-79
2023/08/01 02:46:41;;;;;;;16.77;9.57;;;;;;;14.70;100.00;99853.03;4994934;28;20116;-79
2023/08/01 02:49:06;;;;;;;14.20;8.73;;;;;;;14.67;100.00;99862.91;4994764;28;20104;-79
2023/08/01 02:51:32;;;;;;;16.40;9.30;;;;;;;14.50;100.00;99839.34;4994748;28;20488;-78
2023/08/01 02:53:57;;;;;;;17.20;9.88;;;;;;;14.64;100.00;99864.00;4994454;28;20023;-78
2023/08/01 02:56:22;;;;;;;15.93;10.07;;;;;;;14.49;100.00;99842.09;4993560;28;20091;-79
2023/08/01 02:58:48;;;;;;;20.05;11.13;;;;;;;14.60;100.00;99860.91;4994247;28;20114;-78
2023/08/01 03:01:13;;;;;;;18.60;11.07;;;;;;;14.59;100.00;99858.44;4994793;28;20046;-78
2023/08/01 03:03:39;;;;;;;20.02;10.68;;;;;;;14.42;100.00;99841.00;4994466;28;20054;-79
2023/08/01 03:06:04;;;;;;;18.80;11.45;;;;;;;14.50;100.00;99854.13;4994400;28;20026;-78
2023/08/01 03:08:30;;;;;;;18.70;11.25;;;;;;;14.46;100.00;99845.81;4994446;28;20057;-78
2023/08/01 03:10:55;;;;;;;21.20;12.20;;;;;;;14.37;100.00;99844.06;4994377;28;20034;-78
2023/08/01 03:13:21;;;;;;;18.20;12.15;;;;;;;14.27;100.00;99841.50;4994212;28;20038;-79
2023/08/01 03:15:46;;;;;;;19.63;12.98;;;;;;;14.25;100.00;99858.97;4994071;28;20030;-78
2023/08/01 03:18:11;;;;;;;21.83;13.23;;;;;;;14.20;100.00;99852.59;4994214;28;20034;-78
2023/08/01 03:20:37;;;;;;;26.73;15.63;;;;;;;14.26;100.00;99859.84;4994024;28;20026;-79
2023/08/01 03:23:02;;;;;;;24.08;15.57;;;;;;;14.27;100.00;99857.09;4994259;28;20050;-79
2023/08/01 03:25:28;;;;;;;24.38;16.10;;;;;;;14.30;100.00;99854.19;4994119;28;20369;-78
2023/08/01 03:27:54;;;;;;;25.00;16.40;;;;;;;14.18;100.00;99831.97;4976548;28;20100;-78
2023/08/01 03:30:20;;;;;;;25.38;16.70;;;;;;;14.35;100.00;99858.94;4993966;28;20384;-79
2023/08/01 03:32:46;;;;;;;28.15;17.33;;;;;;;14.27;100.00;99838.91;4993659;28;20492;-78
2023/08/01 03:35:11;;;;;;;27.48;16.77;;;;;;;14.42;100.00;99857.41;4993853;28;20093;-78
2023/08/01 03:37:37;;;;;;;30.48;17.67;;;;;;;14.46;100.00;99860.59;4993850;28;20069;-78
2023/08/01 03:40:03;;;;;;;27.05;17.52;;;;;;;14.45;100.00;99856.31;4993812;28;20495;-79
2023/08/01 03:42:29;;;;;;;29.27;18.05;;;;;;;14.49;100.00;99863.69;4993636;28;20022;-75
2023/08/01 03:44:54;;;;;;;27.90;17.50;;;;;;;14.36;100.00;99832.03;4993549;28;20034;-81
2023/08/01 03:47:20;;;;;;;25.20;17.88;;;;;;;14.50;100.00;99860.13;4976302;28;20043;-79
2023/08/01 03:49:45;;;;;;;26.42;16.55;;;;;;;14.49;100.00;99858.50;4993754;28;20499;-79
2023/08/01 03:52:10;;;;;;;25.73;17.70;;;;;;;14.49;100.00;99852.50;4993847;28;20258;-78
2023/08/01 03:54:36;;;;;;;28.88;18.35;;;;;;;14.45;100.00;99851.94;4993552;28;20026;-79
2023/08/01 03:57:02;;;;;;;27.30;17.98;;;;;;;14.31;100.00;99848.03;4993475;28;20034;-78
2023/08/01 03:59:27;;;;;;;29.17;18.45;;;;;;;14.27;100.00;99846.69;4993361;28;20029;-79
2023/08/01 04:01:53;;;;;;;26.95;18.90;;;;;;;14.38;100.00;99861.28;4993462;28;20030;-79
2023/08/01 04:04:20;;;;;;;26.58;18.38;;;;;;;14.44;100.00;99870.25;4993557;28;20101;-75
2023/08/01 04:06:45;;;;;;;28.92;19.92;;;;;;;14.44;100.00;99865.06;4993407;28;20031;-78
2023/08/01 04:09:10;;;;;;;28.40;19.45;;;;;;;14.47;100.00;99863.03;4993245;28;20029;-77
2023/08/01 04:11:36;;;;;;;29.13;19.45;;;;;;;14.50;100.00;99862.72;4993500;28;20026;-78
2023/08/01 04:14:01;;;;;;;29.38;18.45;;;;;;;14.48;100.00;99862.06;4993395;28;20105;-77
2023/08/01 04:16:26;;;;;;;29.25;19.15;;;;;;;14.55;100.00;99873.53;4993049;28;20031;-77
2023/08/01 04:18:52;;;;;;;32.85;19.52;;;;;;;14.58;100.00;99867.22;4993340;28;20062;-77
2023/08/01 04:21:18;;;;;;;31.20;18.77;;;;;;;14.61;100.00;99866.91;4993462;28;20033;-78
2023/08/01 04:23:43;;;;;;;30.50;19.38;;;;;;;14.60;100.00;99876.47;4993292;28;20030;-77
2023/08/01 04:26:08;;;;;;;31.80;19.95;;;;;;;14.56;100.00;99861.34;4993282;28;20101;-77
2023/08/01 04:28:34;;;;;;;26.15;19.00;;;;;;;14.59;100.00;99866.25;4993096;28;20018;-77
2023/08/01 04:31:00;;;;;;;27.70;18.77;;;;;;;14.38;100.00;99832.69;4992865;28;20085;-77
2023/08/01 04:33:25;;;;;;;28.27;18.33;;;;;;;14.66;100.00;99874.28;4993156;28;20130;-77
2023/08/01 04:35:51;;;;;;;30.50;17.85;;;;;;;14.49;100.00;99829.94;4993222;28;20038;-77
2023/08/01 04:38:16;;;;;;;29.52;18.73;;;;;;;14.26;100.00;99789.72;4993335;28;20416;-77
2023/08/01 04:40:42;;;;;;;28.58;17.35;;;;;;;14.54;100.00;99842.47;4993051;28;20054;-77
2023/08/01 04:43:08;;;;;;;31.17;18.52;;;;;;;14.71;100.00;99864.25;4993004;28;20101;-77
2023/08/01 04:45:33;;;;;;;27.75;18.67;;;;;;;14.79;100.00;99870.34;4992813;28;20027;-77
2023/08/01 04:47:58;;;;;;;25.85;17.52;;;;;;;14.44;100.00;99793.13;4993117;28;20030;-77
2023/08/01 04:50:24;;;;;;;28.05;17.85;;;;;;;14.99;100.00;99871.03;4993056;28;20483;-77
2023/08/01 04:52:49;;;;;;;30.08;18.77;;;;;;;14.39;100.00;99753.00;4993095;28;20027;-77
2023/08/01 04:55:14;;;;;;;28.27;17.92;;;;;;;15.02;100.00;99847.31;4992914;28;20122;-77
2023/08/01 04:57:39;;;;;;;28.10;18.95;;;;;;;15.27;100.00;99884.78;4993015;28;20397;-77
2023/08/01 05:00:05;;;;;;;28.75;18.25;;;;;;;15.10;100.00;99854.38;4993264;28;20366;-77
2023/08/01 05:02:31;;;;;;;24.38;18.23;;;;;;;15.38;100.00;99883.72;4992780;28;20100;-77
2023/08/01 05:04:56;;;;;;;25.83;17.20;;;;;;;15.28;100.00;99843.97;4992928;28;20030;-77
2023/08/01 05:07:21;;;;;;;24.05;17.27;;;;;;;15.77;100.00;99890.22;4992836;28;20030;-77
2023/08/01 05:09:47;;;;;;;24.65;14.93;;;;;;;15.76;100.00;99877.38;4992938;28;20108;-77
2023/08/01 05:12:12;;;;;;;23.15;15.88;;;;;;;15.75;100.00;99879.16;4992880;28;20046;-77
2023/08/01 05:14:38;;;;;;;20.50;13.68;;;;;;;15.60;100.00;99880.66;4992616;28;20472;-77
2023/08/01 05:17:03;;;;;;;23.50;14.68;;;;;;;15.28;100.00;99863.00;4992396;28;20476;-77
2023/08/01 05:19:29;;;;;;;26.65;15.68;;;;;;;15.22;100.00;99863.59;4995667;28;20026;-77
2023/08/01 05:21:55;;;;;;;21.77;14.93;;;;;;;14.96;100.00;99834.13;4996224;28;20023;-77
2023/08/01 05:24:20;;;;;;;22.45;15.25;;;;;;;15.26;100.00;99885.75;4996625;28;20030;-77
2023/08/01 05:26:48;;;;;;;21.10;14.95;;;;;;;15.28;100.00;99876.00;4978726;28;20483;-76
2023/08/01 05:29:13;;;;;;;21.85;15.13;;;;;;;15.80;100.00;99885.69;4996131;28;20121;-77
2023/08/01 05:31:39;;;;;;;19.35;14.18;;;;;;;16.64;100.00;99876.16;4995903;28;20113;-78
2023/08/01 05:34:04;;;;;;;17.45;13.05;;;;;;;17.12;100.00;99851.16;4995957;28;20496;-77
2023/08/01 05:36:29;;;;;;;17.42;11.45;;;;;;;17.03;100.00;99846.91;4996055;28;20026;-77
2023/08/01 05:38:55;;;;;;;16.83;10.10;;;;;;;16.81;100.00;99890.09;4996033;28;20081;-77
2023/08/01 05:41:21;;;;;;;15.02;8.75;;;;;;;16.48;100.00;99896.13;4995993;28;20498;-77
2023/08/01 05:43:48;;;;;;;16.98;10.43;;;;;;;16.40;100.00;99886.47;4996077;28;20022;-77
2023/08/01 05:46:13;;;;;;;13.80;9.48;;;;;;;17.31;100.00;99865.69;4995682;28;20476;-77
2023/08/01 05:48:39;;;;;;;16.30;9.05;;;;;;;17.97;100.00;99901.19;4995812;28;20033;-77
2023/08/01 05:51:04;;;;;;;14.90;9.95;;;;;;;17.80;100.00;99910.06;4995812;28;20038;-77
2023/08/01 05:53:30;;;;;;;19.73;11.23;;;;;;;17.36;100.00;99904.31;4995873;28;20069;-77
2023/08/01 05:55:55;;;;;;;18.55;11.75;;;;;;;17.13;100.00;99910.19;4995567;28;20037;-77
2023/08/01 05:58:21;;;;;;;17.23;10.93;;;;;;;17.75;100.00;99913.16;4995824;28;20030;-77
2023/08/01 06:00:46;;;;;;;19.48;10.88;;;;;;;17.84;100.00;99916.56;4995528;28;20050;-77
2023/08/01 06:03:12;;;;;;;15.05;9.63;;;;;;;17.63;100.00;99895.34;4995527;28;20030;-77
2023/08/01 06:05:37;;;;;;;16.08;10.52;;;;;;;17.16;100.00;99865.50;4995466;28;20018;-77
2023/08/01 06:08:03;;;;;;;17.63;10.25;;;;;;;17.22;100.00;99920.63;4995593;28;20034;-77
2023/08/01 06:10:28;;;;;;;16.30;10.45;;;;;;;17.45;100.00;99912.00;4995383;28;20030;-77
2023/08/01 06:12:54;;;;;;;16.48;9.77;;;;;;;17.44;100.00;99920.00;4995463;28;20109;-77
2023/08/01 06:15:19;;;;;;;19.52;10.73;;;;;;;17.25;100.00;99915.91;4995462;28;20073;-77
2023/08/01 06:17:44;;;;;;;16.95;10.18;;;;;;;17.62;100.00;99920.66;4995156;28;20022;-77
2023/08/01 06:20:10;;;;;;;17.38;10.05;;;;;;;17.74;100.00;99929.81;4995257;28;20065;-77
2023/08/01 06:22:36;;;;;;;17.25;9.95;;;;;;;17.49;100.00;99922.91;4995170;28;20075;-77
2023/08/01 06:25:01;;;;;;;18.95;10.57;;;;;;;17.67;100.00;99926.19;4995098;28;20081;-77
2023/08/01 06:27:26;;;;;;;18.77;10.10;;;;;;;18.18;100.00;99915.50;4995156;28;20030;-77
2023/08/01 06:29:52;;;;;;;17.45;9.55;;;;;;;18.22;100.00;99898.53;4994983;28;20026;-77
2023/08/01 06:32:17;;;;;;;15.65;9.07;;;;;;;18.41;100.00;99816.28;4994870;28;20472;-77
2023/08/01 06:34:43;;;;;;;12.88;7.78;;;;;;;19.90;95.82;99900.41;4994761;28;20030;-77
2023/08/01 06:37:10;;;;;;;13.27;8.55;;;;;;;20.02;94.26;99914.69;4994902;28;20114;-77
2023/08/01 06:39:35;;;;;;;14.98;7.78;;;;;;;20.14;93.40;99910.63;4994946;28;20034;-77
2023/08/01 06:42:00;;;;;;;12.73;7.30;;;;;;;20.57;90.26;99901.13;4994970;28;20026;-77
2023/08/01 06:44:26;;;;;;;15.93;7.22;;;;;;;21.36;84.92;99916.91;4994942;28;20030;-77
2023/08/01 06:46:51;;;;;;;11.90;6.53;;;;;;;21.96;83.34;99912.91;4994934;28;20030;-77
2023/08/01 06:49:16;;;;;;;11.13;5.53;;;;;;;22.72;79.04;99931.34;4994707;28;20176;-78
2023/08/01 06:51:42;;;;;;;12.32;5.85;;;;;;;22.86;75.81;99934.84;4994484;28;20056;-77
2023/08/01 06:54:08;;;;;;;13.38;6.00;;;;;;;22.85;77.22;99920.88;4994561;28;20429;-77
2023/08/01 06:56:33;;;;;;;10.07;5.80;;;;;;;22.97;75.20;99944.00;4994610;28;20124;-77
2023/08/01 06:58:59;;;;;;;11.70;6.40;;;;;;;23.04;75.00;99926.38;4994693;28;20026;-77
2023/08/01 07:01:24;;;;;;;11.15;5.57;;;;;;;23.19;75.50;99943.63;4994513;28;20034;-77
2023/08/01 07:03:51;;;;;;;9.82;5.60;;;;;;;23.08;74.54;99940.78;4994562;28;20026;-77
2023/08/01 07:06:17;;;;;;;13.13;6.20;;;;;;;22.15;75.47;99908.81;4994284;28;20022;-77
2023/08/01 07:08:42;;;;;;;11.15;5.90;;;;;;;21.93;79.26;99944.06;4994407;28;20061;-77
2023/08/01 07:11:08;;;;;;;9.95;5.72;;;;;;;21.13;80.27;99945.13;4994308;28;20479;-77
2023/08/01 07:13:33;;;;;;;12.98;6.13;;;;;;;21.28;85.95;99942.50;4994360;28;20027;-77
2023/08/01 07:15:58;;;;;;;11.43;5.00;;;;;;;22.17;78.72;99953.31;4994212;28;20472;-77
2023/08/01 07:18:24;;;;;;;12.75;5.35;;;;;;;21.54;78.30;99894.63;4994075;28;20031;-77
2023/08/01 07:20:59;;;;;;;11.05;5.20;;;;;;;20.86;84.96;99944.03;4994220;28;20027;-77
2023/08/01 07:23:24;;;;;;;11.18;5.20;;;;;;;19.97;86.40;99896.06;4994039;28;20097;-77
2023/08/01 07:25:50;;;;;;;10.27;5.35;;;;;;;19.55;89.84;99907.06;4994273;28;20050;-77
2023/08/01 07:28:15;;;;;;;13.25;5.00;;;;;;;19.42;92.82;99941.72;4994161;28;20096;-77
2023/08/01 07:30:40;;;;;;;9.77;4.78;;;;;;;18.96;94.35;99919.94;4993991;28;20037;-77
2023/08/01 07:33:06;;;;;;;10.15;4.85;;;;;;;18.89;95.78;99938.97;4993645;28;20045;-77
2023/08/01 07:35:31;;;;;;;8.30;4.75;;;;;;;18.56;97.24;99901.63;4993794;28;20492;-77
2023/08/01 07:37:56;;;;;;;12.63;5.07;;;;;;;18.29;98.68;99874.16;4993783;28;20030;-77
2023/08/01 07:40:22;;;;;;;9.02;4.78;;;;;;;18.58;97.67;99889.22;4993844;28;20023;-77
2023/08/01 07:42:47;;;;;;;9.32;5.07;;;;;;;19.20;96.50;99931.06;4993527;28;20380;-77
2023/08/01 07:45:12;;;;;;;11.48;5.10;;;;;;;19.44;95.31;99943.16;4993832;28;20062;-77
2023/08/01 07:47:38;;;;;;;9.40;4.80;;;;;;;19.41;95.35;99938.28;4993612;28;20022;-77
2023/08/01 07:50:03;;;;;;;11.80;5.28;;;;;;;19.31;96.98;99931.66;4993675;28;20105;-75
2023/08/01 07:52:30;;;;;;;9.57;5.28;;;;;;;19.33;94.39;99937.53;4993016;28;20054;-77
2023/08/01 07:54:57;;;;;;;13.27;5.50;;;;;;;18.89;95.46;99918.03;4993688;28;20054;-76
2023/08/01 07:57:22;;;;;;;11.48;5.32;;;;;;;18.52;97.49;99936.97;4993616;28;20022;-77
2023/08/01 07:59:48;;;;;;;11.88;5.32;;;;;;;18.20;99.68;99929.25;4993441;28;20022;-78
2023/08/01 08:02:13;;;;;;;13.00;5.75;;;;;;;18.53;100.00;99951.66;4993185;28;20133;-77
2023/08/01 08:04:38;;;;;;;12.23;5.10;;;;;;;18.96;99.40;99925.97;4993294;28;20033;-78
2023/08/01 08:07:04;;;;;;;8.43;4.75;;;;;;;19.38;96.47;99941.25;4993480;28;20053;-78
2023/08/01 08:09:29;;;;;;;12.52;5.10;;;;;;;19.55;96.88;99920.16;4993290;28;20030;-78
2023/08/01 08:11:57;;;;;;;10.73;4.28;;;;;;;19.68;92.31;99905.53;4993371;28;20125;-77
2023/08/01 08:14:23;;;;;;;8.82;4.05;;;;;;;19.61;92.70;99895.94;4993637;28;20022;-77
2023/08/01 08:16:48;;;;;;;10.10;4.18;;;;;;;19.99;91.44;99943.88;4993328;28;20036;-78
2023/08/01 08:19:14;;;;;;;9.27;3.83;;;;;;;19.90;89.54;99942.31;4993117;28;20030;-78
2023/08/01 08:21:39;;;;;;;12.45;4.72;;;;;;;19.94;89.95;99946.19;4993340;28;20121;-78
2023/08/01 08:24:04;;;;;;;10.50;3.83;;;;;;;19.62;90.45;99926.38;4993129;28;20030;-78
2023/08/01 08:26:31;;;;;;;10.48;3.75;;;;;;;19.63;92.46;99943.69;4993247;28;20468;-78
2023/08/01 08:28:56;;;;;;;12.13;3.92;;;;;;;19.80;91.57;99953.06;4993355;28;20031;-77
2023/08/01 08:31:21;;;;;;;9.82;3.90;;;;;;;20.13;90.39;99961.41;4993280;28;20038;-78
2023/08/01 08:33:47;;;;;;;8.10;3.55;;;;;;;20.54;89.88;99961.00;4992731;28;20141;-78
2023/08/01 08:36:12;;;;;;;8.63;4.13;;;;;;;20.34;85.88;99958.06;4993128;28;20185;-78
2023/08/01 08:38:37;;;;;;;8.85;3.50;;;;;;;19.77;87.59;99935.91;4993086;28;20018;-77
2023/08/01 08:41:24;;;;;;;10.13;4.10;;;;;;;19.24;93.22;99949.84;4993054;28;20097;-78
2023/08/01 08:44:00;;;;;;;8.88;3.80;;;;;;;18.68;99.20;99956.19;4993052;28;20500;-77
2023/08/01 08:46:29;;;;;;;9.68;3.85;;;;;;;18.50;100.00;99954.63;4993071;28;20034;-77
2023/08/01 08:48:56;;;;;;;9.15;3.95;;;;;;;18.45;100.00;99962.16;4992847;28;20105;-78
2023/08/01 08:51:23;;;;;;;7.63;3.45;;;;;;;18.38;100.00;99945.50;4992958;28;20038;-78
2023/08/01 08:53:53;;;;;;;8.07;3.40;;;;;;;18.51;100.00;99974.56;4995017;28;20499;-78
2023/08/01 08:56:19;;;;;;;7.63;3.83;;;;;;;18.74;100.00;99966.81;4996723;28;20077;-77
2023/08/01 08:58:46;;;;;;;7.05;3.50;;;;;;;19.02;99.78;99959.31;4996618;28;20030;-77
2023/08/01 09:01:12;;;;;;;10.35;3.42;;;;;;;19.04;98.52;99938.22;4996624;28;20154;-77
2023/08/01 09:03:38;;;;;;;8.18;3.03;;;;;;;19.27;94.87;99972.25;4996635;28;20424;-78
2023/08/01 09:06:20;;;;;;;7.45;2.83;;;;;;;19.23;96.72;99961.31;4996479;28;20102;-77
2023/08/01 09:09:08;;;;;;;8.00;2.95;;;;;;;19.21;96.49;99973.75;4996598;28;20023;-77
2023/08/01 09:11:39;;;;;;;7.63;3.40;;;;;;;18.82;96.68;99964.16;4996467;28;20124;-77
2023/08/01 09:14:04;;;;;;;7.65;3.03;;;;;;;18.68;98.30;99983.19;4996380;28;20029;-77
2023/08/01 09:16:29;;;;;;;9.18;3.60;;;;;;;18.47;100.00;99991.53;4996298;28;20034;-77
2023/08/01 09:18:55;;;;;;;9.40;3.30;;;;;;;18.15;100.00;99982.00;4996322;28;20030;-76
2023/08/01 09:21:21;;;;;;;10.38;3.42;;;;;;;17.78;100.00;99982.50;4996499;28;20041;-76
2023/08/01 09:23:47;;;;;;;8.40;3.50;;;;;;;17.57;100.00;99984.75;4996308;28;20447;-77
2023/08/01 09:26:17;;;;;;;7.03;3.05;;;;;;;17.63;100.00;99999.78;4996267;28;20026;-77
2023/08/01 09:28:42;;;;;;;10.00;3.60;;;;;;;17.28;100.00;99936.44;4996233;28;20048;-76
2023/08/01 09:31:11;;;;;;;10.88;3.95;;;;;;;17.80;100.00;99990.19;4996165;28;20460;-78
2023/08/01 09:33:40;;;;;;;8.75;3.28;;;;;;;18.18;100.00;99994.72;4995795;28;20395;-76
2023/08/01 09:36:09;;;;;;;8.95;3.40;;;;;;;18.37;100.00;99980.47;4996091;28;20023;-77
2023/08/01 09:38:36;;;;;;;8.80;3.50;;;;;;;18.72;100.00;100007.19;4995986;28;20033;-77
2023/08/01 09:41:03;;;;;;;11.00;3.47;;;;;;;18.94;100.00;100001.22;4995823;28;20041;-77
2023/08/01 09:43:38;;;;;;;9.88;2.85;;;;;;;19.15;100.00;100011.09;4996024;28;20105;-77
2023/08/01 09:46:06;;;;;;;9.20;3.03;;;;;;;19.18;98.68;100008.16;4995779;28;20046;-77
2023/08/01 09:48:32;;;;;;;9.50;2.67;;;;;;;19.23;96.72;99991.91;4995801;28;20043;-77
2023/08/01 09:51:11;;;;;;;7.88;2.58;;;;;;;19.29;95.24;100009.56;4995823;28;20031;-78
2023/08/01 09:54:06;;;;;;;8.68;2.92;;;;;;;19.35;92.45;100021.94;4995774;28;20038;-77
2023/08/01 09:56:32;;;;;;;8.68;2.92;;;;;;;19.13;91.75;100016.50;4897735;29;20051;-78
2023/08/01 09:58:59;;;;;;;7.95;2.67;;;;;;;18.97;nan;100000.88;4897985;29;20036;-77
2023/08/01 10:01:26;;;;;;;10.65;2.80;;;;;;;19.01;92.55;100017.06;4897910;29;20119;-76
2023/08/01 10:03:52;;;;;;;8.95;2.92;;;;;;;18.35;90.24;99964.94;4897468;29;20032;-78
2023/08/01 10:06:23;;;;;;;8.95;2.53;;;;;;;18.45;94.50;100019.66;4897823;29;20036;-77
2023/08/01 10:08:50;;;;;;;10.10;3.20;;;;;;;18.33;97.88;99995.69;4897599;29;20499;-78
2023/08/01 10:11:18;;;;;;;9.40;2.97;;;;;;;18.63;97.82;100012.44;4897532;29;20048;-78
2023/08/01 10:13:44;;;;;;;11.15;3.90;;;;;;;18.84;100.00;100027.59;4897539;29;20509;-77
2023/08/01 10:16:11;;;;;;;7.78;2.83;;;;;;;18.70;97.10;99991.69;4897474;29;20040;-77
2023/08/01 10:18:37;;;;;;;7.57;3.00;;;;;;;18.59;95.46;99997.25;4897327;29;20033;-78
2023/08/01 10:21:05;;;;;;;7.88;3.00;;;;;;;18.77;100.00;100002.25;4897652;29;20067;-78
2023/08/01 10:23:32;;;;;;;11.50;3.40;;;;;;;19.05;94.82;100026.19;4897393;29;20111;-77
2023/08/01 10:26:00;;;;;;;8.93;3.28;;;;;;;19.49;95.84;100019.41;4897155;29;20051;-77
2023/08/01 10:28:35;;;;;;;10.63;2.92;;;;;;;19.23;93.34;99890.66;4897456;29;20104;-78
2023/08/01 10:31:12;;;;;;;9.52;2.80;;;;;;;20.22;89.47;100025.88;4897258;29;20032;-78
2023/08/01 10:33:38;;;;;;;8.25;3.05;;;;;;;19.96;88.14;100015.81;4975529;28;20054;-77
2023/08/01 10:36:20;;;;;;;8.68;2.75;;;;;;;20.05;86.89;100042.75;4977534;28;20030;-78
2023/08/01 10:38:50;;;;;;;10.57;2.88;;;;;;;20.03;88.74;100016.72;4995061;28;20045;-78
2023/08/01 10:41:27;;;;;;;10.27;2.85;;;;;;;20.18;86.45;100031.66;4995065;28;20034;-82
2023/08/01 10:44:16;;;;;;;8.35;3.00;;;;;;;20.10;86.05;100024.69;4994775;28;20495;-79
2023/08/01 10:46:50;;;;;;;8.15;2.88;;;;;;;20.09;87.42;100033.53;4994760;28;20117;-81
2023/08/01 10:49:17;;;;;;;8.95;2.97;;;;;;;20.00;87.41;100024.94;4994633;28;20026;-81
2023/08/01 10:51:43;;;;;;;7.18;2.90;;;;;;;19.97;85.12;100029.72;4994686;28;20019;-81
2023/08/01 10:54:21;;;;;;;7.75;2.80;;;;;;;19.97;86.57;100033.16;4994453;28;20030;-79
2023/08/01 10:56:46;;;;;;;8.35;2.90;;;;;;;19.94;88.27;100038.72;4994547;28;20049;-79
2023/08/01 10:59:13;;;;;;;7.57;2.30;;;;;;;19.73;84.17;100033.34;4994472;28;20392;-79
2023/08/01 11:01:50;;;;;;;6.97;2.92;;;;;;;19.64;86.57;100045.66;4994296;28;20027;-78
2023/08/01 11:04:28;;;;;;;9.90;2.70;;;;;;;19.73;89.29;100036.78;4994107;28;20026;-78
2023/08/01 11:06:58;;;;;;;7.55;2.83;;;;;;;19.75;87.10;100020.88;4974688;28;20400;-77
2023/08/01 11:09:25;;;;;;;7.88;3.10;;;;;;;19.81;89.40;100003.66;4995122;28;20037;-76
2023/08/01 11:11:56;;;;;;;10.73;2.70;;;;;;;20.50;87.36;100044.47;4994302;28;20050;-75
2023/08/01 11:14:23;;;;;;;7.90;3.40;;;;;;;20.53;83.26;100035.44;4994328;28;20096;-78
2023/08/01 11:16:49;;;;;;;8.50;2.80;;;;;;;20.36;81.46;100021.66;4975838;28;20038;-78